Terminal Aerodrome Forecast
Issued by NWS

Home | Current Version | Previous Version | Text Only | Print | Product List | Glossary On
Versions: 1 2 3 4 5 6 7 8 9 10 11 12 13 14 15 16
386
FTUS46 KSGX 311732
TAFSNA
TAF
KSNA 311732Z 3118/0118 VRB06KT P6SM BKN015
     FM311900 21010KT P6SM SCT015
     FM010200 VRB04KT P6SM SCT012
     FM010300 VRB03KT P6SM OVC010=

USA.gov is the U.S. government's official web portal to all federal, state and local government web resources and services.